sensor_id;sensor_type;location;lat;lon;timestamp;temperature;humidity
17442;DHT22;8838;50.144;8.176;2024-02-15T00:01:50;9.40;99.90
17442;DHT22;8838;50.144;8.176;2024-02-15T00:04:17;9.50;99.90
17442;DHT22;8838;50.144;8.176;2024-02-15T00:06:46;9.50;99.90
17442;DHT22;8838;50.144;8.176;2024-02-15T00:09:13;9.50;99.90
17442;DHT22;8838;50.144;8.176;2024-02-15T00:11:40;9.50;99.90
17442;DHT22;8838;50.144;8.176;2024-02-15T00:14:06;9.50;99.90
17442;DHT22;8838;50.144;8.176;2024-02-15T00:16:34;9.50;99.90
17442;DHT22;8838;50.144;8.176;2024-02-15T00:19:01;9.50;99.90
17442;DHT22;8838;50.144;8.176;2024-02-15T00:21:28;9.50;99.90
17442;DHT22;8838;50.144;8.176;2024-02-15T00:23:56;9.50;99.90
17442;DHT22;8838;50.144;8.176;2024-02-15T00:26:25;9.40;99.90
17442;DHT22;8838;50.144;8.176;2024-02-15T00:28:52;9.40;99.90
17442;DHT22;8838;50.144;8.176;2024-02-15T00:31:19;9.40;99.90
17442;DHT22;8838;50.144;8.176;2024-02-15T00:33:46;9.40;99.90
17442;DHT22;8838;50.144;8.176;2024-02-15T00:36:12;9.40;99.90
17442;DHT22;8838;50.144;8.176;2024-02-15T00:38:39;9.40;99.90
17442;DHT22;8838;50.144;8.176;2024-02-15T00:41:09;9.40;99.90
17442;DHT22;8838;50.144;8.176;2024-02-15T00:43:36;9.50;99.90
17442;DHT22;8838;50.144;8.176;2024-02-15T00:46:03;9.50;99.90
17442;DHT22;8838;50.144;8.176;2024-02-15T00:48:30;9.60;99.90
17442;DHT22;8838;50.144;8.176;2024-02-15T00:50:57;9.60;99.90
17442;DHT22;8838;50.144;8.176;2024-02-15T00:53:24;9.60;99.90
17442;DHT22;8838;50.144;8.176;2024-02-15T00:55:51;9.70;99.90
17442;DHT22;8838;50.144;8.176;2024-02-15T00:58:19;9.60;99.90
17442;DHT22;8838;50.144;8.176;2024-02-15T01:00:47;9.70;99.90
17442;DHT22;8838;50.144;8.176;2024-02-15T01:03:15;9.70;99.90
17442;DHT22;8838;50.144;8.176;2024-02-15T01:05:42;9.80;99.90
17442;DHT22;8838;50.144;8.176;2024-02-15T01:08:09;9.80;99.90
17442;DHT22;8838;50.144;8.176;2024-02-15T01:10:36;9.80;99.90
17442;DHT22;8838;50.144;8.176;2024-02-15T01:13:03;9.90;99.90
17442;DHT22;8838;50.144;8.176;2024-02-15T01:15:31;9.90;99.90
17442;DHT22;8838;50.144;8.176;2024-02-15T01:17:58;9.90;99.90
17442;DHT22;8838;50.144;8.176;2024-02-15T01:20:25;9.90;99.90
17442;DHT22;8838;50.144;8.176;2024-02-15T01:22:52;9.90;99.90
17442;DHT22;8838;50.144;8.176;2024-02-15T01:25:19;9.80;99.90
17442;DHT22;8838;50.144;8.176;2024-02-15T01:27:46;9.80;99.90
17442;DHT22;8838;50.144;8.176;2024-02-15T01:30:13;9.70;99.90
17442;DHT22;8838;50.144;8.176;2024-02-15T01:32:42;9.70;99.90
17442;DHT22;8838;50.144;8.176;2024-02-15T01:35:08;9.70;99.90
17442;DHT22;8838;50.144;8.176;2024-02-15T01:37:36;9.70;99.90
17442;DHT22;8838;50.144;8.176;2024-02-15T01:40:04;9.80;99.90
17442;DHT22;8838;50.144;8.176;2024-02-15T01:42:32;9.80;99.90
17442;DHT22;8838;50.144;8.176;2024-02-15T01:44:59;9.80;99.90
17442;DHT22;8838;50.144;8.176;2024-02-15T01:47:25;9.80;99.90
17442;DHT22;8838;50.144;8.176;2024-02-15T01:49:53;9.70;99.90
17442;DHT22;8838;50.144;8.176;2024-02-15T01:52:21;9.70;99.90
17442;DHT22;8838;50.144;8.176;2024-02-15T01:54:48;9.80;99.90
17442;DHT22;8838;50.144;8.176;2024-02-15T01:57:16;9.80;99.90
17442;DHT22;8838;50.144;8.176;2024-02-15T01:59:43;9.80;99.90
17442;DHT22;8838;50.144;8.176;2024-02-15T02:02:13;9.70;99.90
17442;DHT22;8838;50.144;8.176;2024-02-15T02:04:41;9.70;99.90
17442;DHT22;8838;50.144;8.176;2024-02-15T02:07:09;9.80;99.90
17442;DHT22;8838;50.144;8.176;2024-02-15T02:09:37;9.90;99.90
17442;DHT22;8838;50.144;8.176;2024-02-15T02:12:04;9.80;99.90
17442;DHT22;8838;50.144;8.176;2024-02-15T02:14:33;9.80;99.90
17442;DHT22;8838;50.144;8.176;2024-02-15T02:17:11;9.80;99.90
17442;DHT22;8838;50.144;8.176;2024-02-15T02:19:39;9.90;99.90
17442;DHT22;8838;50.144;8.176;2024-02-15T02:22:06;9.90;99.90
17442;DHT22;8838;50.144;8.176;2024-02-15T02:24:41;9.90;99.90
17442;DHT22;8838;50.144;8.176;2024-02-15T02:27:13;9.90;99.90
17442;DHT22;8838;50.144;8.176;2024-02-15T02:29:42;9.90;99.90
17442;DHT22;8838;50.144;8.176;2024-02-15T02:32:11;9.90;99.90
17442;DHT22;8838;50.144;8.176;2024-02-15T02:34:38;9.90;99.90
17442;DHT22;8838;50.144;8.176;2024-02-15T02:37:06;10.00;99.90
17442;DHT22;8838;50.144;8.176;2024-02-15T02:39:33;10.00;99.90
17442;DHT22;8838;50.144;8.176;2024-02-15T02:42:00;10.00;99.90
17442;DHT22;8838;50.144;8.176;2024-02-15T02:44:29;10.00;99.90
17442;DHT22;8838;50.144;8.176;2024-02-15T02:46:55;10.00;99.90
17442;DHT22;8838;50.144;8.176;2024-02-15T02:49:22;10.00;99.90
17442;DHT22;8838;50.144;8.176;2024-02-15T02:51:49;10.10;99.90
17442;DHT22;8838;50.144;8.176;2024-02-15T02:54:16;10.10;99.90
17442;DHT22;8838;50.144;8.176;2024-02-15T02:56:43;10.10;99.90
17442;DHT22;8838;50.144;8.176;2024-02-15T02:59:10;10.10;99.90
17442;DHT22;8838;50.144;8.176;2024-02-15T03:01:39;10.10;99.90
17442;DHT22;8838;50.144;8.176;2024-02-15T03:04:06;10.10;99.90
17442;DHT22;8838;50.144;8.176;2024-02-15T03:06:33;10.10;99.90
17442;DHT22;8838;50.144;8.176;2024-02-15T03:09:00;10.10;99.90
17442;DHT22;8838;50.144;8.176;2024-02-15T03:11:32;10.20;99.90
17442;DHT22;8838;50.144;8.176;2024-02-15T03:13:59;10.10;99.90
17442;DHT22;8838;50.144;8.176;2024-02-15T03:16:26;10.10;99.90
17442;DHT22;8838;50.144;8.176;2024-02-15T03:18:54;10.00;99.90
17442;DHT22;8838;50.144;8.176;2024-02-15T03:21:21;10.00;99.90
17442;DHT22;8838;50.144;8.176;2024-02-15T03:23:48;10.00;99.90
17442;DHT22;8838;50.144;8.176;2024-02-15T03:26:14;9.90;99.90
17442;DHT22;8838;50.144;8.176;2024-02-15T03:28:41;9.90;99.90
17442;DHT22;8838;50.144;8.176;2024-02-15T03:31:10;9.90;99.90
17442;DHT22;8838;50.144;8.176;2024-02-15T03:33:37;9.90;99.90
17442;DHT22;8838;50.144;8.176;2024-02-15T03:36:06;9.90;99.90
17442;DHT22;8838;50.144;8.176;2024-02-15T03:38:33;9.80;99.90
17442;DHT22;8838;50.144;8.176;2024-02-15T03:40:59;9.80;99.90
17442;DHT22;8838;50.144;8.176;2024-02-15T03:43:27;9.80;99.90
17442;DHT22;8838;50.144;8.176;2024-02-15T03:45:54;9.90;99.90
17442;DHT22;8838;50.144;8.176;2024-02-15T03:48:21;9.90;99.90
17442;DHT22;8838;50.144;8.176;2024-02-15T03:50:47;9.90;99.90
17442;DHT22;8838;50.144;8.176;2024-02-15T03:53:16;9.80;99.90
17442;DHT22;8838;50.144;8.176;2024-02-15T03:55:42;9.80;99.90
17442;DHT22;8838;50.144;8.176;2024-02-15T03:58:09;9.70;99.90
17442;DHT22;8838;50.144;8.176;2024-02-15T04:00:37;9.70;99.90
17442;DHT22;8838;50.144;8.176;2024-02-15T04:03:05;9.80;99.90
17442;DHT22;8838;50.144;8.176;2024-02-15T04:05:32;9.70;99.90
17442;DHT22;8838;50.144;8.176;2024-02-15T04:07:59;9.60;99.90
17442;DHT22;8838;50.144;8.176;2024-02-15T04:10:29;9.60;99.90
17442;DHT22;8838;50.144;8.176;2024-02-15T04:12:56;9.60;99.90
17442;DHT22;8838;50.144;8.176;2024-02-15T04:15:23;9.60;99.90
17442;DHT22;8838;50.144;8.176;2024-02-15T04:17:50;9.60;99.90
17442;DHT22;8838;50.144;8.176;2024-02-15T04:20:21;9.50;99.90
17442;DHT22;8838;50.144;8.176;2024-02-15T04:22:48;9.50;99.90
17442;DHT22;8838;50.144;8.176;2024-02-15T04:25:15;9.50;99.90
17442;DHT22;8838;50.144;8.176;2024-02-15T04:27:44;9.60;99.90
17442;DHT22;8838;50.144;8.176;2024-02-15T04:30:12;9.60;99.90
17442;DHT22;8838;50.144;8.176;2024-02-15T04:32:39;9.60;99.90
17442;DHT22;8838;50.144;8.176;2024-02-15T04:35:06;9.60;99.90
17442;DHT22;8838;50.144;8.176;2024-02-15T04:37:35;9.60;99.90
17442;DHT22;8838;50.144;8.176;2024-02-15T04:40:03;9.60;99.90
17442;DHT22;8838;50.144;8.176;2024-02-15T04:42:33;9.60;99.90
17442;DHT22;8838;50.144;8.176;2024-02-15T04:45:03;9.70;99.90
17442;DHT22;8838;50.144;8.176;2024-02-15T04:47:31;9.70;99.90
17442;DHT22;8838;50.144;8.176;2024-02-15T04:49:57;9.70;99.90
17442;DHT22;8838;50.144;8.176;2024-02-15T04:52:24;9.80;99.90
17442;DHT22;8838;50.144;8.176;2024-02-15T04:54:51;9.80;99.90
17442;DHT22;8838;50.144;8.176;2024-02-15T04:57:19;9.80;99.90
17442;DHT22;8838;50.144;8.176;2024-02-15T04:59:46;9.70;99.90
17442;DHT22;8838;50.144;8.176;2024-02-15T05:02:15;9.80;99.90
17442;DHT22;8838;50.144;8.176;2024-02-15T05:04:42;9.80;99.90
17442;DHT22;8838;50.144;8.176;2024-02-15T05:07:10;9.80;99.90
17442;DHT22;8838;50.144;8.176;2024-02-15T05:09:37;9.80;99.90
17442;DHT22;8838;50.144;8.176;2024-02-15T05:12:04;9.80;99.90
17442;DHT22;8838;50.144;8.176;2024-02-15T05:14:31;9.80;99.90
17442;DHT22;8838;50.144;8.176;2024-02-15T05:16:58;9.80;99.90
17442;DHT22;8838;50.144;8.176;2024-02-15T05:19:27;9.80;99.90
17442;DHT22;8838;50.144;8.176;2024-02-15T05:21:55;9.80;99.90
17442;DHT22;8838;50.144;8.176;2024-02-15T05:24:22;9.80;99.90
17442;DHT22;8838;50.144;8.176;2024-02-15T05:26:49;9.80;99.90
17442;DHT22;8838;50.144;8.176;2024-02-15T05:29:16;9.80;99.90
17442;DHT22;8838;50.144;8.176;2024-02-15T05:31:43;9.70;99.90
17442;DHT22;8838;50.144;8.176;2024-02-15T05:34:10;9.70;99.90
17442;DHT22;8838;50.144;8.176;2024-02-15T05:36:39;9.70;99.90
17442;DHT22;8838;50.144;8.176;2024-02-15T05:39:06;9.60;99.90
17442;DHT22;8838;50.144;8.176;2024-02-15T05:41:33;9.70;99.90
17442;DHT22;8838;50.144;8.176;2024-02-15T05:44:01;9.60;99.90
17442;DHT22;8838;50.144;8.176;2024-02-15T05:46:30;9.60;99.90
17442;DHT22;8838;50.144;8.176;2024-02-15T05:48:57;9.60;99.90
17442;DHT22;8838;50.144;8.176;2024-02-15T05:51:24;9.50;99.90
17442;DHT22;8838;50.144;8.176;2024-02-15T05:53:52;9.50;99.90
17442;DHT22;8838;50.144;8.176;2024-02-15T05:56:23;9.50;99.90
17442;DHT22;8838;50.144;8.176;2024-02-15T05:58:51;9.50;99.90
17442;DHT22;8838;50.144;8.176;2024-02-15T06:01:18;9.40;99.90
17442;DHT22;8838;50.144;8.176;2024-02-15T06:03:45;9.50;99.90
17442;DHT22;8838;50.144;8.176;2024-02-15T06:06:13;9.50;99.90
17442;DHT22;8838;50.144;8.176;2024-02-15T06:08:40;9.50;99.90
17442;DHT22;8838;50.144;8.176;2024-02-15T06:11:08;9.50;99.90
17442;DHT22;8838;50.144;8.176;2024-02-15T06:13:36;9.40;99.90
17442;DHT22;8838;50.144;8.176;2024-02-15T06:16:03;9.40;99.90
17442;DHT22;8838;50.144;8.176;2024-02-15T06:18:34;9.40;99.90
17442;DHT22;8838;50.144;8.176;2024-02-15T06:21:03;9.50;99.90
17442;DHT22;8838;50.144;8.176;2024-02-15T06:23:31;9.40;99.90
17442;DHT22;8838;50.144;8.176;2024-02-15T06:25:58;9.40;99.90
17442;DHT22;8838;50.144;8.176;2024-02-15T06:28:29;9.40;99.90
17442;DHT22;8838;50.144;8.176;2024-02-15T06:31:14;9.40;99.90
17442;DHT22;8838;50.144;8.176;2024-02-15T06:33:59;9.30;99.90
17442;DHT22;8838;50.144;8.176;2024-02-15T06:36:48;9.30;99.90
17442;DHT22;8838;50.144;8.176;2024-02-15T06:39:33;9.30;99.90
17442;DHT22;8838;50.144;8.176;2024-02-15T06:42:11;9.40;99.90
17442;DHT22;8838;50.144;8.176;2024-02-15T06:44:56;9.30;99.90
17442;DHT22;8838;50.144;8.176;2024-02-15T06:47:23;9.40;99.90
17442;DHT22;8838;50.144;8.176;2024-02-15T06:49:50;9.40;99.90
17442;DHT22;8838;50.144;8.176;2024-02-15T06:52:20;9.40;99.90
17442;DHT22;8838;50.144;8.176;2024-02-15T06:54:48;9.30;99.90
17442;DHT22;8838;50.144;8.176;2024-02-15T06:57:16;9.30;99.90
17442;DHT22;8838;50.144;8.176;2024-02-15T06:59:46;9.40;99.90
17442;DHT22;8838;50.144;8.176;2024-02-15T07:02:14;9.40;99.90
17442;DHT22;8838;50.144;8.176;2024-02-15T07:04:44;9.30;99.90
17442;DHT22;8838;50.144;8.176;2024-02-15T07:07:11;9.40;99.90
17442;DHT22;8838;50.144;8.176;2024-02-15T07:09:39;9.40;99.90
17442;DHT22;8838;50.144;8.176;2024-02-15T07:12:07;9.30;99.90
17442;DHT22;8838;50.144;8.176;2024-02-15T07:14:33;9.30;99.90
17442;DHT22;8838;50.144;8.176;2024-02-15T07:17:00;9.40;99.90
17442;DHT22;8838;50.144;8.176;2024-02-15T07:19:28;9.40;99.90
17442;DHT22;8838;50.144;8.176;2024-02-15T07:21:58;9.40;99.90
17442;DHT22;8838;50.144;8.176;2024-02-15T07:24:25;9.40;99.90
17442;DHT22;8838;50.144;8.176;2024-02-15T07:26:52;9.40;99.90
17442;DHT22;8838;50.144;8.176;2024-02-15T07:29:21;9.40;99.90
17442;DHT22;8838;50.144;8.176;2024-02-15T07:31:48;9.40;99.90
17442;DHT22;8838;50.144;8.176;2024-02-15T07:34:15;9.50;99.90
17442;DHT22;8838;50.144;8.176;2024-02-15T07:36:43;9.50;99.90
17442;DHT22;8838;50.144;8.176;2024-02-15T07:39:11;9.60;99.90
17442;DHT22;8838;50.144;8.176;2024-02-15T07:41:48;9.60;99.90
17442;DHT22;8838;50.144;8.176;2024-02-15T07:44:15;9.60;99.90
17442;DHT22;8838;50.144;8.176;2024-02-15T07:46:43;9.60;99.90
17442;DHT22;8838;50.144;8.176;2024-02-15T07:49:10;9.60;99.90
17442;DHT22;8838;50.144;8.176;2024-02-15T07:51:37;9.70;99.90
17442;DHT22;8838;50.144;8.176;2024-02-15T07:54:05;9.70;99.90
17442;DHT22;8838;50.144;8.176;2024-02-15T07:56:32;9.70;99.90
17442;DHT22;8838;50.144;8.176;2024-02-15T07:59:00;9.70;99.90
17442;DHT22;8838;50.144;8.176;2024-02-15T08:01:28;9.80;99.90
17442;DHT22;8838;50.144;8.176;2024-02-15T08:03:56;9.90;99.90
17442;DHT22;8838;50.144;8.176;2024-02-15T08:06:23;9.90;99.90
17442;DHT22;8838;50.144;8.176;2024-02-15T08:08:53;10.00;99.90
17442;DHT22;8838;50.144;8.176;2024-02-15T08:11:21;10.00;99.90
17442;DHT22;8838;50.144;8.176;2024-02-15T08:13:51;10.00;99.90
17442;DHT22;8838;50.144;8.176;2024-02-15T08:16:20;10.00;99.90
17442;DHT22;8838;50.144;8.176;2024-02-15T08:18:48;9.90;99.90
17442;DHT22;8838;50.144;8.176;2024-02-15T08:21:18;10.00;99.90
17442;DHT22;8838;50.144;8.176;2024-02-15T08:23:46;10.00;99.90
17442;DHT22;8838;50.144;8.176;2024-02-15T08:26:13;10.00;99.90
17442;DHT22;8838;50.144;8.176;2024-02-15T08:28:43;10.10;99.90
17442;DHT22;8838;50.144;8.176;2024-02-15T08:31:10;10.20;99.90
17442;DHT22;8838;50.144;8.176;2024-02-15T08:33:40;10.20;99.90
17442;DHT22;8838;50.144;8.176;2024-02-15T08:36:08;10.20;99.90
17442;DHT22;8838;50.144;8.176;2024-02-15T08:38:36;10.30;99.90
17442;DHT22;8838;50.144;8.176;2024-02-15T08:41:03;10.30;99.90
17442;DHT22;8838;50.144;8.176;2024-02-15T08:43:32;10.30;99.90
17442;DHT22;8838;50.144;8.176;2024-02-15T08:46:00;10.40;99.90
17442;DHT22;8838;50.144;8.176;2024-02-15T08:48:27;10.40;99.90
17442;DHT22;8838;50.144;8.176;2024-02-15T08:50:56;10.40;99.90
17442;DHT22;8838;50.144;8.176;2024-02-15T08:53:22;10.40;99.90
17442;DHT22;8838;50.144;8.176;2024-02-15T08:55:50;10.40;99.90
17442;DHT22;8838;50.144;8.176;2024-02-15T08:58:18;10.50;99.90
17442;DHT22;8838;50.144;8.176;2024-02-15T09:00:46;10.40;99.90
17442;DHT22;8838;50.144;8.176;2024-02-15T09:03:15;10.60;99.90
17442;DHT22;8838;50.144;8.176;2024-02-15T09:05:42;10.60;99.90
17442;DHT22;8838;50.144;8.176;2024-02-15T09:08:08;10.70;99.90
17442;DHT22;8838;50.144;8.176;2024-02-15T09:10:35;10.80;99.90
17442;DHT22;8838;50.144;8.176;2024-02-15T09:13:02;10.90;99.90
17442;DHT22;8838;50.144;8.176;2024-02-15T09:15:29;11.00;99.90
17442;DHT22;8838;50.144;8.176;2024-02-15T09:17:56;11.00;99.90
17442;DHT22;8838;50.144;8.176;2024-02-15T09:20:25;11.10;99.90
17442;DHT22;8838;50.144;8.176;2024-02-15T09:22:54;11.00;99.90
17442;DHT22;8838;50.144;8.176;2024-02-15T09:25:22;11.00;99.90
17442;DHT22;8838;50.144;8.176;2024-02-15T09:27:50;10.90;99.90
17442;DHT22;8838;50.144;8.176;2024-02-15T09:30:17;10.90;99.90
17442;DHT22;8838;50.144;8.176;2024-02-15T09:32:44;11.00;99.90
17442;DHT22;8838;50.144;8.176;2024-02-15T09:35:12;11.10;99.90
17442;DHT22;8838;50.144;8.176;2024-02-15T09:37:45;11.10;99.90
17442;DHT22;8838;50.144;8.176;2024-02-15T09:40:15;11.20;99.90
17442;DHT22;8838;50.144;8.176;2024-02-15T09:42:42;11.30;99.90
17442;DHT22;8838;50.144;8.176;2024-02-15T09:45:11;11.50;99.90
17442;DHT22;8838;50.144;8.176;2024-02-15T09:47:40;11.70;99.90
17442;DHT22;8838;50.144;8.176;2024-02-15T09:50:09;11.90;99.90
17442;DHT22;8838;50.144;8.176;2024-02-15T09:52:40;12.00;99.90
17442;DHT22;8838;50.144;8.176;2024-02-15T09:55:08;12.10;99.90
17442;DHT22;8838;50.144;8.176;2024-02-15T09:57:38;12.10;99.90
17442;DHT22;8838;50.144;8.176;2024-02-15T10:00:06;12.20;99.90
17442;DHT22;8838;50.144;8.176;2024-02-15T10:02:35;12.10;99.90
17442;DHT22;8838;50.144;8.176;2024-02-15T10:05:04;12.10;99.90
17442;DHT22;8838;50.144;8.176;2024-02-15T10:07:30;11.90;99.90
17442;DHT22;8838;50.144;8.176;2024-02-15T10:10:14;11.80;99.90
17442;DHT22;8838;50.144;8.176;2024-02-15T10:12:42;11.60;99.90
17442;DHT22;8838;50.144;8.176;2024-02-15T10:15:10;11.60;99.90
17442;DHT22;8838;50.144;8.176;2024-02-15T10:17:36;11.50;99.90
17442;DHT22;8838;50.144;8.176;2024-02-15T10:20:04;11.40;99.90
17442;DHT22;8838;50.144;8.176;2024-02-15T10:22:31;11.50;99.90
17442;DHT22;8838;50.144;8.176;2024-02-15T10:25:13;11.40;99.90
17442;DHT22;8838;50.144;8.176;2024-02-15T10:27:40;11.40;99.90
17442;DHT22;8838;50.144;8.176;2024-02-15T10:30:17;11.40;99.90
17442;DHT22;8838;50.144;8.176;2024-02-15T10:32:45;11.40;99.90
17442;DHT22;8838;50.144;8.176;2024-02-15T10:35:19;11.50;99.90
17442;DHT22;8838;50.144;8.176;2024-02-15T10:37:47;11.50;99.90
17442;DHT22;8838;50.144;8.176;2024-02-15T10:40:19;11.50;99.90
17442;DHT22;8838;50.144;8.176;2024-02-15T10:42:47;11.50;99.90
17442;DHT22;8838;50.144;8.176;2024-02-15T10:45:15;11.50;99.90
17442;DHT22;8838;50.144;8.176;2024-02-15T10:47:45;11.50;99.90
17442;DHT22;8838;50.144;8.176;2024-02-15T10:50:13;11.60;99.90
17442;DHT22;8838;50.144;8.176;2024-02-15T10:52:47;11.70;99.90
17442;DHT22;8838;50.144;8.176;2024-02-15T10:55:25;11.80;99.90
17442;DHT22;8838;50.144;8.176;2024-02-15T10:57:53;11.70;99.90
17442;DHT22;8838;50.144;8.176;2024-02-15T11:00:24;11.70;99.90
17442;DHT22;8838;50.144;8.176;2024-02-15T11:03:00;11.80;99.90
17442;DHT22;8838;50.144;8.176;2024-02-15T11:05:32;11.80;99.90
17442;DHT22;8838;50.144;8.176;2024-02-15T11:08:02;11.80;99.90
17442;DHT22;8838;50.144;8.176;2024-02-15T11:10:32;12.00;99.90
17442;DHT22;8838;50.144;8.176;2024-02-15T11:12:59;12.40;99.90
17442;DHT22;8838;50.144;8.176;2024-02-15T11:15:44;12.70;99.90
17442;DHT22;8838;50.144;8.176;2024-02-15T11:18:43;12.90;99.90
17442;DHT22;8838;50.144;8.176;2024-02-15T11:21:17;13.30;99.90
17442;DHT22;8838;50.144;8.176;2024-02-15T11:23:44;13.50;99.90
17442;DHT22;8838;50.144;8.176;2024-02-15T11:26:42;13.70;99.90
17442;DHT22;8838;50.144;8.176;2024-02-15T11:29:49;13.80;99.90
17442;DHT22;8838;50.144;8.176;2024-02-15T11:32:39;13.80;99.90
17442;DHT22;8838;50.144;8.176;2024-02-15T11:35:10;13.70;99.90
17442;DHT22;8838;50.144;8.176;2024-02-15T11:37:57;13.50;99.90
17442;DHT22;8838;50.144;8.176;2024-02-15T11:41:02;13.40;99.90
17442;DHT22;8838;50.144;8.176;2024-02-15T11:43:50;13.50;99.90
17442;DHT22;8838;50.144;8.176;2024-02-15T11:46:22;13.50;99.90
17442;DHT22;8838;50.144;8.176;2024-02-15T11:48:51;13.60;99.90
17442;DHT22;8838;50.144;8.176;2024-02-15T11:51:26;13.70;99.90
17442;DHT22;8838;50.144;8.176;2024-02-15T11:56:31;13.60;99.90
17442;DHT22;8838;50.144;8.176;2024-02-15T11:59:04;13.60;99.90
17442;DHT22;8838;50.144;8.176;2024-02-15T12:01:32;13.50;99.90
17442;DHT22;8838;50.144;8.176;2024-02-15T12:04:16;13.60;99.90
17442;DHT22;8838;50.144;8.176;2024-02-15T12:07:02;13.60;99.90
17442;DHT22;8838;50.144;8.176;2024-02-15T12:09:46;13.60;99.90
17442;DHT22;8838;50.144;8.176;2024-02-15T12:12:30;13.50;99.90
17442;DHT22;8838;50.144;8.176;2024-02-15T12:15:16;13.50;99.90
17442;DHT22;8838;50.144;8.176;2024-02-15T12:18:13;13.50;99.90
17442;DHT22;8838;50.144;8.176;2024-02-15T12:20:58;13.40;99.90
17442;DHT22;8838;50.144;8.176;2024-02-15T12:23:26;13.30;99.90
17442;DHT22;8838;50.144;8.176;2024-02-15T12:25:52;13.30;99.90
17442;DHT22;8838;50.144;8.176;2024-02-15T12:28:19;13.30;99.90
17442;DHT22;8838;50.144;8.176;2024-02-15T12:30:55;13.20;99.90
17442;DHT22;8838;50.144;8.176;2024-02-15T12:33:22;13.10;99.90
17442;DHT22;8838;50.144;8.176;2024-02-15T12:35:49;13.10;99.90
17442;DHT22;8838;50.144;8.176;2024-02-15T12:38:16;13.10;99.90
17442;DHT22;8838;50.144;8.176;2024-02-15T12:40:44;13.30;99.90
17442;DHT22;8838;50.144;8.176;2024-02-15T12:43:11;13.30;99.90
17442;DHT22;8838;50.144;8.176;2024-02-15T12:45:39;13.20;99.90
17442;DHT22;8838;50.144;8.176;2024-02-15T12:48:08;13.20;99.90
17442;DHT22;8838;50.144;8.176;2024-02-15T12:50:36;13.20;99.90
17442;DHT22;8838;50.144;8.176;2024-02-15T12:53:03;13.30;99.90
17442;DHT22;8838;50.144;8.176;2024-02-15T12:55:32;13.10;99.90
17442;DHT22;8838;50.144;8.176;2024-02-15T12:58:02;13.10;99.90
17442;DHT22;8838;50.144;8.176;2024-02-15T13:00:34;13.20;99.90
17442;DHT22;8838;50.144;8.176;2024-02-15T13:03:05;13.20;99.90
17442;DHT22;8838;50.144;8.176;2024-02-15T13:05:36;13.20;99.90
17442;DHT22;8838;50.144;8.176;2024-02-15T13:08:03;13.10;99.90
17442;DHT22;8838;50.144;8.176;2024-02-15T13:10:31;13.20;99.90
17442;DHT22;8838;50.144;8.176;2024-02-15T13:12:58;13.20;99.90
17442;DHT22;8838;50.144;8.176;2024-02-15T13:15:25;13.10;99.90
17442;DHT22;8838;50.144;8.176;2024-02-15T13:17:58;13.10;99.90
17442;DHT22;8838;50.144;8.176;2024-02-15T13:20:26;13.00;99.90
17442;DHT22;8838;50.144;8.176;2024-02-15T13:22:59;13.10;99.90
17442;DHT22;8838;50.144;8.176;2024-02-15T13:25:28;13.10;99.90
17442;DHT22;8838;50.144;8.176;2024-02-15T13:27:55;13.20;99.90
17442;DHT22;8838;50.144;8.176;2024-02-15T13:30:22;13.20;99.90
17442;DHT22;8838;50.144;8.176;2024-02-15T13:32:53;13.10;99.90
17442;DHT22;8838;50.144;8.176;2024-02-15T13:35:20;13.10;99.90
17442;DHT22;8838;50.144;8.176;2024-02-15T13:37:49;13.10;99.90
17442;DHT22;8838;50.144;8.176;2024-02-15T13:40:19;13.10;99.90
17442;DHT22;8838;50.144;8.176;2024-02-15T13:42:49;13.00;99.90
17442;DHT22;8838;50.144;8.176;2024-02-15T13:45:18;13.00;99.90
17442;DHT22;8838;50.144;8.176;2024-02-15T13:47:45;13.00;99.90
17442;DHT22;8838;50.144;8.176;2024-02-15T13:50:13;13.00;99.90
17442;DHT22;8838;50.144;8.176;2024-02-15T13:52:41;12.80;99.90
17442;DHT22;8838;50.144;8.176;2024-02-15T13:55:09;12.80;99.90
17442;DHT22;8838;50.144;8.176;2024-02-15T13:57:38;12.80;99.90
17442;DHT22;8838;50.144;8.176;2024-02-15T14:00:07;12.70;99.90
17442;DHT22;8838;50.144;8.176;2024-02-15T14:02:39;12.70;99.90
17442;DHT22;8838;50.144;8.176;2024-02-15T14:05:06;12.70;99.90
17442;DHT22;8838;50.144;8.176;2024-02-15T14:07:34;12.70;99.90
17442;DHT22;8838;50.144;8.176;2024-02-15T14:10:02;12.70;99.90
17442;DHT22;8838;50.144;8.176;2024-02-15T14:12:28;12.80;99.90
17442;DHT22;8838;50.144;8.176;2024-02-15T14:14:57;12.70;99.90
17442;DHT22;8838;50.144;8.176;2024-02-15T14:17:23;12.70;99.90
17442;DHT22;8838;50.144;8.176;2024-02-15T14:19:50;12.70;99.90
17442;DHT22;8838;50.144;8.176;2024-02-15T14:22:17;12.70;99.90
17442;DHT22;8838;50.144;8.176;2024-02-15T14:24:44;12.70;99.90
17442;DHT22;8838;50.144;8.176;2024-02-15T14:27:11;12.60;99.90
17442;DHT22;8838;50.144;8.176;2024-02-15T14:29:40;12.50;99.90
17442;DHT22;8838;50.144;8.176;2024-02-15T14:32:28;12.50;99.90
17442;DHT22;8838;50.144;8.176;2024-02-15T14:35:13;12.50;99.90
17442;DHT22;8838;50.144;8.176;2024-02-15T14:37:42;12.50;99.90
17442;DHT22;8838;50.144;8.176;2024-02-15T14:40:11;12.50;99.90
17442;DHT22;8838;50.144;8.176;2024-02-15T14:42:39;12.50;99.90
17442;DHT22;8838;50.144;8.176;2024-02-15T14:45:08;12.40;99.90
17442;DHT22;8838;50.144;8.176;2024-02-15T14:47:36;12.40;99.90
17442;DHT22;8838;50.144;8.176;2024-02-15T14:50:03;12.40;99.90
17442;DHT22;8838;50.144;8.176;2024-02-15T14:52:34;12.40;99.90
17442;DHT22;8838;50.144;8.176;2024-02-15T14:55:01;12.40;99.90
17442;DHT22;8838;50.144;8.176;2024-02-15T14:57:30;12.40;99.90
17442;DHT22;8838;50.144;8.176;2024-02-15T14:59:57;12.40;99.90
17442;DHT22;8838;50.144;8.176;2024-02-15T15:02:24;12.30;99.90
17442;DHT22;8838;50.144;8.176;2024-02-15T15:04:52;12.40;99.90
17442;DHT22;8838;50.144;8.176;2024-02-15T15:07:44;12.30;99.90
17442;DHT22;8838;50.144;8.176;2024-02-15T15:10:40;12.30;99.90
17442;DHT22;8838;50.144;8.176;2024-02-15T15:13:25;12.30;99.90
17442;DHT22;8838;50.144;8.176;2024-02-15T15:15:52;12.20;99.90
17442;DHT22;8838;50.144;8.176;2024-02-15T15:18:19;12.20;99.90
17442;DHT22;8838;50.144;8.176;2024-02-15T15:20:48;12.10;99.90
17442;DHT22;8838;50.144;8.176;2024-02-15T15:23:15;12.10;99.90
17442;DHT22;8838;50.144;8.176;2024-02-15T15:25:42;12.10;99.90
17442;DHT22;8838;50.144;8.176;2024-02-15T15:28:09;12.00;99.90
17442;DHT22;8838;50.144;8.176;2024-02-15T15:30:37;12.10;99.90
17442;DHT22;8838;50.144;8.176;2024-02-15T15:33:04;12.00;99.90
17442;DHT22;8838;50.144;8.176;2024-02-15T15:35:32;12.00;99.90
17442;DHT22;8838;50.144;8.176;2024-02-15T15:38:02;12.00;99.90
17442;DHT22;8838;50.144;8.176;2024-02-15T15:40:29;12.00;99.90
17442;DHT22;8838;50.144;8.176;2024-02-15T15:42:57;11.90;99.90
17442;DHT22;8838;50.144;8.176;2024-02-15T15:45:24;11.90;99.90
17442;DHT22;8838;50.144;8.176;2024-02-15T15:47:51;11.90;99.90
17442;DHT22;8838;50.144;8.176;2024-02-15T15:50:19;12.00;99.90
17442;DHT22;8838;50.144;8.176;2024-02-15T15:52:47;11.90;99.90
17442;DHT22;8838;50.144;8.176;2024-02-15T15:55:15;11.90;99.90
17442;DHT22;8838;50.144;8.176;2024-02-15T15:57:42;12.00;99.90
17442;DHT22;8838;50.144;8.176;2024-02-15T16:00:10;11.90;99.90
17442;DHT22;8838;50.144;8.176;2024-02-15T16:02:41;11.90;99.90
17442;DHT22;8838;50.144;8.176;2024-02-15T16:05:09;12.00;99.90
17442;DHT22;8838;50.144;8.176;2024-02-15T16:07:37;11.90;99.90
17442;DHT22;8838;50.144;8.176;2024-02-15T16:10:07;11.90;99.90